sensor_id;sensor_type;location;lat;lon;timestamp;temperature;humidity
15690;DHT22;7945;48.816;11.506;2022-09-24T00:01:44;13.20;99.90
15690;DHT22;7945;48.816;11.506;2022-09-24T00:04:12;13.10;99.90
15690;DHT22;7945;48.816;11.506;2022-09-24T00:06:41;13.10;99.90
15690;DHT22;7945;48.816;11.506;2022-09-24T00:09:09;13.10;99.90
15690;DHT22;7945;48.816;11.506;2022-09-24T00:11:37;13.40;99.90
15690;DHT22;7945;48.816;11.506;2022-09-24T00:14:05;13.00;99.90
15690;DHT22;7945;48.816;11.506;2022-09-24T00:16:32;13.00;99.90
15690;DHT22;7945;48.816;11.506;2022-09-24T00:19:00;13.00;99.90
15690;DHT22;7945;48.816;11.506;2022-09-24T00:21:30;13.00;99.90
15690;DHT22;7945;48.816;11.506;2022-09-24T00:23:59;12.90;99.90
15690;DHT22;7945;48.816;11.506;2022-09-24T00:26:26;13.00;99.90
15690;DHT22;7945;48.816;11.506;2022-09-24T00:29:13;13.00;99.90
15690;DHT22;7945;48.816;11.506;2022-09-24T00:31:40;13.00;99.90
15690;DHT22;7945;48.816;11.506;2022-09-24T00:34:07;12.90;99.90
15690;DHT22;7945;48.816;11.506;2022-09-24T00:36:36;12.90;99.90
15690;DHT22;7945;48.816;11.506;2022-09-24T00:39:03;12.90;99.90
15690;DHT22;7945;48.816;11.506;2022-09-24T00:41:32;12.90;99.90
15690;DHT22;7945;48.816;11.506;2022-09-24T00:43:59;12.80;99.90
15690;DHT22;7945;48.816;11.506;2022-09-24T00:46:29;12.80;99.90
15690;DHT22;7945;48.816;11.506;2022-09-24T00:49:00;12.80;99.90
15690;DHT22;7945;48.816;11.506;2022-09-24T00:51:29;12.70;99.90
15690;DHT22;7945;48.816;11.506;2022-09-24T00:53:59;12.80;99.90
15690;DHT22;7945;48.816;11.506;2022-09-24T00:56:29;12.80;99.90
15690;DHT22;7945;48.816;11.506;2022-09-24T00:58:59;12.90;99.90
15690;DHT22;7945;48.816;11.506;2022-09-24T01:01:28;12.90;99.90
15690;DHT22;7945;48.816;11.506;2022-09-24T01:03:56;12.90;99.90
15690;DHT22;7945;48.816;11.506;2022-09-24T01:06:24;12.80;99.90
15690;DHT22;7945;48.816;11.506;2022-09-24T01:08:52;12.70;99.90
15690;DHT22;7945;48.816;11.506;2022-09-24T01:11:29;12.80;99.90
15690;DHT22;7945;48.816;11.506;2022-09-24T01:14:32;12.80;99.90
15690;DHT22;7945;48.816;11.506;2022-09-24T01:17:12;12.70;99.90
15690;DHT22;7945;48.816;11.506;2022-09-24T01:19:59;12.70;99.90
15690;DHT22;7945;48.816;11.506;2022-09-24T01:22:40;12.70;99.90
15690;DHT22;7945;48.816;11.506;2022-09-24T01:25:17;12.70;99.90
15690;DHT22;7945;48.816;11.506;2022-09-24T01:28:00;12.70;99.90
15690;DHT22;7945;48.816;11.506;2022-09-24T01:30:31;12.70;99.90
15690;DHT22;7945;48.816;11.506;2022-09-24T01:33:05;12.60;99.90
15690;DHT22;7945;48.816;11.506;2022-09-24T01:35:36;12.60;99.90
15690;DHT22;7945;48.816;11.506;2022-09-24T01:38:07;12.50;99.90
15690;DHT22;7945;48.816;11.506;2022-09-24T01:40:36;12.40;99.90
15690;DHT22;7945;48.816;11.506;2022-09-24T01:43:04;12.50;99.90
15690;DHT22;7945;48.816;11.506;2022-09-24T01:45:34;12.50;99.90
15690;DHT22;7945;48.816;11.506;2022-09-24T01:48:03;12.50;99.90
15690;DHT22;7945;48.816;11.506;2022-09-24T01:50:34;12.40;99.90
15690;DHT22;7945;48.816;11.506;2022-09-24T01:53:07;12.40;99.90
15690;DHT22;7945;48.816;11.506;2022-09-24T01:55:37;12.30;99.90
15690;DHT22;7945;48.816;11.506;2022-09-24T01:58:06;12.30;99.90
15690;DHT22;7945;48.816;11.506;2022-09-24T02:00:38;12.30;99.90
15690;DHT22;7945;48.816;11.506;2022-09-24T02:03:11;12.20;99.90
15690;DHT22;7945;48.816;11.506;2022-09-24T02:05:43;12.20;99.90
15690;DHT22;7945;48.816;11.506;2022-09-24T02:08:15;12.20;99.90
15690;DHT22;7945;48.816;11.506;2022-09-24T02:10:47;12.20;99.90
15690;DHT22;7945;48.816;11.506;2022-09-24T02:13:16;12.10;99.90
15690;DHT22;7945;48.816;11.506;2022-09-24T02:15:48;12.10;99.90
15690;DHT22;7945;48.816;11.506;2022-09-24T02:18:18;12.20;99.90
15690;DHT22;7945;48.816;11.506;2022-09-24T02:20:46;12.20;99.90
15690;DHT22;7945;48.816;11.506;2022-09-24T02:23:15;12.20;99.90
15690;DHT22;7945;48.816;11.506;2022-09-24T02:25:47;12.20;99.90
15690;DHT22;7945;48.816;11.506;2022-09-24T02:28:15;12.20;99.90
15690;DHT22;7945;48.816;11.506;2022-09-24T02:30:47;12.20;99.90
15690;DHT22;7945;48.816;11.506;2022-09-24T02:33:16;12.30;99.90
15690;DHT22;7945;48.816;11.506;2022-09-24T02:36:00;12.30;99.90
15690;DHT22;7945;48.816;11.506;2022-09-24T02:38:27;12.20;99.90
15690;DHT22;7945;48.816;11.506;2022-09-24T02:40:55;12.30;99.90
15690;DHT22;7945;48.816;11.506;2022-09-24T02:43:22;12.20;99.90
15690;DHT22;7945;48.816;11.506;2022-09-24T02:45:51;12.10;99.90
15690;DHT22;7945;48.816;11.506;2022-09-24T02:48:18;12.30;99.90
15690;DHT22;7945;48.816;11.506;2022-09-24T02:50:45;12.20;99.90
15690;DHT22;7945;48.816;11.506;2022-09-24T02:53:12;12.20;99.90
15690;DHT22;7945;48.816;11.506;2022-09-24T02:55:39;12.20;99.90
15690;DHT22;7945;48.816;11.506;2022-09-24T02:58:06;12.10;99.90
15690;DHT22;7945;48.816;11.506;2022-09-24T03:00:32;12.10;99.90
15690;DHT22;7945;48.816;11.506;2022-09-24T03:03:01;12.10;99.90
15690;DHT22;7945;48.816;11.506;2022-09-24T03:05:27;11.90;99.90
15690;DHT22;7945;48.816;11.506;2022-09-24T03:07:54;11.90;99.90
15690;DHT22;7945;48.816;11.506;2022-09-24T03:10:23;12.00;99.90
15690;DHT22;7945;48.816;11.506;2022-09-24T03:12:50;12.00;99.90
15690;DHT22;7945;48.816;11.506;2022-09-24T03:15:17;11.90;99.90
15690;DHT22;7945;48.816;11.506;2022-09-24T03:17:44;12.00;99.90
15690;DHT22;7945;48.816;11.506;2022-09-24T03:20:12;11.90;99.90
15690;DHT22;7945;48.816;11.506;2022-09-24T03:22:39;11.90;99.90
15690;DHT22;7945;48.816;11.506;2022-09-24T03:25:07;12.30;99.90
15690;DHT22;7945;48.816;11.506;2022-09-24T03:27:35;11.80;99.90
15690;DHT22;7945;48.816;11.506;2022-09-24T03:30:02;11.70;99.90
15690;DHT22;7945;48.816;11.506;2022-09-24T03:32:47;11.70;99.90
15690;DHT22;7945;48.816;11.506;2022-09-24T03:35:15;11.70;99.90
15690;DHT22;7945;48.816;11.506;2022-09-24T03:37:42;11.70;99.90
15690;DHT22;7945;48.816;11.506;2022-09-24T03:40:10;11.80;99.90
15690;DHT22;7945;48.816;11.506;2022-09-24T03:42:36;11.80;99.90
15690;DHT22;7945;48.816;11.506;2022-09-24T03:45:04;11.80;99.90
15690;DHT22;7945;48.816;11.506;2022-09-24T03:47:32;11.80;99.90
15690;DHT22;7945;48.816;11.506;2022-09-24T03:49:58;11.80;99.90
15690;DHT22;7945;48.816;11.506;2022-09-24T03:52:27;11.80;99.90
15690;DHT22;7945;48.816;11.506;2022-09-24T03:54:54;11.80;99.90
15690;DHT22;7945;48.816;11.506;2022-09-24T03:57:21;11.80;99.90
15690;DHT22;7945;48.816;11.506;2022-09-24T03:59:48;11.80;99.90
15690;DHT22;7945;48.816;11.506;2022-09-24T04:02:17;11.80;99.90
15690;DHT22;7945;48.816;11.506;2022-09-24T04:04:44;11.80;99.90
15690;DHT22;7945;48.816;11.506;2022-09-24T04:07:11;11.70;99.90
15690;DHT22;7945;48.816;11.506;2022-09-24T04:09:39;11.70;99.90
15690;DHT22;7945;48.816;11.506;2022-09-24T04:12:06;11.70;99.90
15690;DHT22;7945;48.816;11.506;2022-09-24T04:14:33;11.60;99.90
15690;DHT22;7945;48.816;11.506;2022-09-24T04:17:00;11.60;99.90
15690;DHT22;7945;48.816;11.506;2022-09-24T04:19:28;11.60;99.90
15690;DHT22;7945;48.816;11.506;2022-09-24T04:21:56;11.50;99.90
15690;DHT22;7945;48.816;11.506;2022-09-24T04:24:23;11.50;99.90
15690;DHT22;7945;48.816;11.506;2022-09-24T04:26:51;11.40;99.90
15690;DHT22;7945;48.816;11.506;2022-09-24T04:29:18;11.50;99.90
15690;DHT22;7945;48.816;11.506;2022-09-24T04:31:45;11.50;99.90
15690;DHT22;7945;48.816;11.506;2022-09-24T04:34:12;11.50;99.90
15690;DHT22;7945;48.816;11.506;2022-09-24T04:36:39;11.40;99.90
15690;DHT22;7945;48.816;11.506;2022-09-24T04:39:06;11.40;99.90
15690;DHT22;7945;48.816;11.506;2022-09-24T04:41:33;11.40;99.90
15690;DHT22;7945;48.816;11.506;2022-09-24T04:44:02;11.50;99.90
15690;DHT22;7945;48.816;11.506;2022-09-24T04:46:29;11.50;99.90
15690;DHT22;7945;48.816;11.506;2022-09-24T04:48:57;11.50;99.90
15690;DHT22;7945;48.816;11.506;2022-09-24T04:51:24;11.50;99.90
15690;DHT22;7945;48.816;11.506;2022-09-24T04:53:51;11.50;99.90
15690;DHT22;7945;48.816;11.506;2022-09-24T04:56:18;11.50;99.90
15690;DHT22;7945;48.816;11.506;2022-09-24T04:58:49;11.50;99.90
15690;DHT22;7945;48.816;11.506;2022-09-24T05:01:17;11.50;99.90
15690;DHT22;7945;48.816;11.506;2022-09-24T05:03:44;11.50;99.90
15690;DHT22;7945;48.816;11.506;2022-09-24T05:06:11;11.50;99.90
15690;DHT22;7945;48.816;11.506;2022-09-24T05:08:39;11.50;99.90
15690;DHT22;7945;48.816;11.506;2022-09-24T05:11:06;11.50;99.90
15690;DHT22;7945;48.816;11.506;2022-09-24T05:13:33;11.50;99.90
15690;DHT22;7945;48.816;11.506;2022-09-24T05:16:01;11.50;99.90
15690;DHT22;7945;48.816;11.506;2022-09-24T05:18:29;11.50;99.90
15690;DHT22;7945;48.816;11.506;2022-09-24T05:20:56;11.50;99.90
15690;DHT22;7945;48.816;11.506;2022-09-24T05:23:22;11.40;99.90
15690;DHT22;7945;48.816;11.506;2022-09-24T05:25:49;11.40;99.90
15690;DHT22;7945;48.816;11.506;2022-09-24T05:28:34;11.40;99.90
15690;DHT22;7945;48.816;11.506;2022-09-24T05:31:02;11.40;99.90
15690;DHT22;7945;48.816;11.506;2022-09-24T05:33:30;11.40;99.90
15690;DHT22;7945;48.816;11.506;2022-09-24T05:35:57;11.40;99.90
15690;DHT22;7945;48.816;11.506;2022-09-24T05:38:24;11.40;99.90
15690;DHT22;7945;48.816;11.506;2022-09-24T05:40:51;11.40;99.90
15690;DHT22;7945;48.816;11.506;2022-09-24T05:43:19;11.50;99.90
15690;DHT22;7945;48.816;11.506;2022-09-24T05:45:46;11.60;99.90
15690;DHT22;7945;48.816;11.506;2022-09-24T05:48:14;11.80;99.90
15690;DHT22;7945;48.816;11.506;2022-09-24T05:50:42;11.90;99.90
15690;DHT22;7945;48.816;11.506;2022-09-24T05:53:09;11.90;99.90
15690;DHT22;7945;48.816;11.506;2022-09-24T05:55:37;12.00;99.90
15690;DHT22;7945;48.816;11.506;2022-09-24T05:58:04;11.90;99.90
15690;DHT22;7945;48.816;11.506;2022-09-24T06:00:31;11.90;99.90
15690;DHT22;7945;48.816;11.506;2022-09-24T06:03:03;12.00;99.90
15690;DHT22;7945;48.816;11.506;2022-09-24T06:05:32;11.90;99.90
15690;DHT22;7945;48.816;11.506;2022-09-24T06:08:01;11.90;99.90
15690;DHT22;7945;48.816;11.506;2022-09-24T06:10:28;11.90;99.90
15690;DHT22;7945;48.816;11.506;2022-09-24T06:14:48;11.70;99.90
15690;DHT22;7945;48.816;11.506;2022-09-24T06:17:15;11.70;99.90
15690;DHT22;7945;48.816;11.506;2022-09-24T06:19:42;11.70;99.90
15690;DHT22;7945;48.816;11.506;2022-09-24T06:22:08;11.70;99.90
15690;DHT22;7945;48.816;11.506;2022-09-24T06:24:35;11.70;99.90
15690;DHT22;7945;48.816;11.506;2022-09-24T06:27:02;11.80;99.90
15690;DHT22;7945;48.816;11.506;2022-09-24T06:29:29;11.80;99.90
15690;DHT22;7945;48.816;11.506;2022-09-24T06:31:57;11.80;99.90
15690;DHT22;7945;48.816;11.506;2022-09-24T06:34:24;11.90;99.90
15690;DHT22;7945;48.816;11.506;2022-09-24T06:36:52;11.90;99.90
15690;DHT22;7945;48.816;11.506;2022-09-24T06:39:19;11.90;99.90
15690;DHT22;7945;48.816;11.506;2022-09-24T06:41:47;11.90;99.90
15690;DHT22;7945;48.816;11.506;2022-09-24T06:44:15;11.90;99.90
15690;DHT22;7945;48.816;11.506;2022-09-24T06:46:43;11.90;99.90
15690;DHT22;7945;48.816;11.506;2022-09-24T06:49:11;11.90;99.90
15690;DHT22;7945;48.816;11.506;2022-09-24T06:51:38;12.00;99.90
15690;DHT22;7945;48.816;11.506;2022-09-24T06:54:05;12.10;99.90
15690;DHT22;7945;48.816;11.506;2022-09-24T06:56:32;12.20;99.90
15690;DHT22;7945;48.816;11.506;2022-09-24T06:58:59;12.20;99.90
15690;DHT22;7945;48.816;11.506;2022-09-24T07:01:26;12.30;99.90
15690;DHT22;7945;48.816;11.506;2022-09-24T07:03:53;12.30;99.90
15690;DHT22;7945;48.816;11.506;2022-09-24T07:06:21;12.30;99.90
15690;DHT22;7945;48.816;11.506;2022-09-24T07:08:49;12.40;99.90
15690;DHT22;7945;48.816;11.506;2022-09-24T07:11:16;13.00;99.90
15690;DHT22;7945;48.816;11.506;2022-09-24T07:13:43;12.40;99.90
15690;DHT22;7945;48.816;11.506;2022-09-24T07:16:10;12.40;99.90
15690;DHT22;7945;48.816;11.506;2022-09-24T07:18:37;12.70;99.90
15690;DHT22;7945;48.816;11.506;2022-09-24T07:21:04;12.50;99.90
15690;DHT22;7945;48.816;11.506;2022-09-24T07:23:32;12.60;99.90
15690;DHT22;7945;48.816;11.506;2022-09-24T07:25:59;12.50;99.90
15690;DHT22;7945;48.816;11.506;2022-09-24T07:28:26;12.60;99.90
15690;DHT22;7945;48.816;11.506;2022-09-24T07:30:57;12.60;99.90
15690;DHT22;7945;48.816;11.506;2022-09-24T07:33:24;12.50;99.90
15690;DHT22;7945;48.816;11.506;2022-09-24T07:35:51;12.40;99.90
15690;DHT22;7945;48.816;11.506;2022-09-24T07:38:18;12.60;99.90
15690;DHT22;7945;48.816;11.506;2022-09-24T07:40:46;12.30;99.90
15690;DHT22;7945;48.816;11.506;2022-09-24T07:43:13;12.30;99.90
15690;DHT22;7945;48.816;11.506;2022-09-24T07:45:40;12.30;99.90
15690;DHT22;7945;48.816;11.506;2022-09-24T07:48:09;12.30;99.90
15690;DHT22;7945;48.816;11.506;2022-09-24T07:50:38;12.30;99.90
15690;DHT22;7945;48.816;11.506;2022-09-24T07:53:05;12.40;99.90
15690;DHT22;7945;48.816;11.506;2022-09-24T07:55:32;12.40;99.90
15690;DHT22;7945;48.816;11.506;2022-09-24T07:58:06;12.40;99.90
15690;DHT22;7945;48.816;11.506;2022-09-24T08:00:33;12.40;99.90
15690;DHT22;7945;48.816;11.506;2022-09-24T08:03:01;12.40;99.90
15690;DHT22;7945;48.816;11.506;2022-09-24T08:05:28;12.50;99.90
15690;DHT22;7945;48.816;11.506;2022-09-24T08:07:56;12.50;99.90
15690;DHT22;7945;48.816;11.506;2022-09-24T08:10:23;12.60;99.90
15690;DHT22;7945;48.816;11.506;2022-09-24T08:12:51;12.60;99.90
15690;DHT22;7945;48.816;11.506;2022-09-24T08:15:19;12.70;99.90
15690;DHT22;7945;48.816;11.506;2022-09-24T08:17:47;12.80;99.90
15690;DHT22;7945;48.816;11.506;2022-09-24T08:20:14;12.80;99.90
15690;DHT22;7945;48.816;11.506;2022-09-24T08:22:41;12.80;99.90
15690;DHT22;7945;48.816;11.506;2022-09-24T08:25:08;12.90;99.90
15690;DHT22;7945;48.816;11.506;2022-09-24T08:27:35;12.90;99.90
15690;DHT22;7945;48.816;11.506;2022-09-24T08:30:02;12.90;99.90
15690;DHT22;7945;48.816;11.506;2022-09-24T08:32:30;12.90;99.90
15690;DHT22;7945;48.816;11.506;2022-09-24T08:34:57;12.90;99.90
15690;DHT22;7945;48.816;11.506;2022-09-24T08:37:24;12.90;99.90
15690;DHT22;7945;48.816;11.506;2022-09-24T08:39:52;13.00;99.90
15690;DHT22;7945;48.816;11.506;2022-09-24T08:42:29;13.10;99.90
15690;DHT22;7945;48.816;11.506;2022-09-24T08:44:59;13.20;99.90
15690;DHT22;7945;48.816;11.506;2022-09-24T08:47:49;13.20;99.90
15690;DHT22;7945;48.816;11.506;2022-09-24T08:50:22;13.30;99.90
15690;DHT22;7945;48.816;11.506;2022-09-24T08:53:05;13.30;99.90
15690;DHT22;7945;48.816;11.506;2022-09-24T08:55:39;13.30;99.90
15690;DHT22;7945;48.816;11.506;2022-09-24T08:58:27;13.40;99.90
15690;DHT22;7945;48.816;11.506;2022-09-24T09:01:00;13.50;99.90
15690;DHT22;7945;48.816;11.506;2022-09-24T09:03:35;13.50;99.90
15690;DHT22;7945;48.816;11.506;2022-09-24T09:06:04;13.60;99.90
15690;DHT22;7945;48.816;11.506;2022-09-24T09:08:42;13.70;99.90
15690;DHT22;7945;48.816;11.506;2022-09-24T09:11:15;13.80;99.90
15690;DHT22;7945;48.816;11.506;2022-09-24T09:13:47;14.00;99.90
15690;DHT22;7945;48.816;11.506;2022-09-24T09:16:21;14.00;99.90
15690;DHT22;7945;48.816;11.506;2022-09-24T09:18:53;14.20;99.90
15690;DHT22;7945;48.816;11.506;2022-09-24T09:21:26;14.30;99.90
15690;DHT22;7945;48.816;11.506;2022-09-24T09:23:56;14.30;99.90
15690;DHT22;7945;48.816;11.506;2022-09-24T09:26:25;14.30;99.90
15690;DHT22;7945;48.816;11.506;2022-09-24T09:28:57;14.40;99.90
15690;DHT22;7945;48.816;11.506;2022-09-24T09:31:32;14.50;99.90
15690;DHT22;7945;48.816;11.506;2022-09-24T09:34:18;14.60;99.90
15690;DHT22;7945;48.816;11.506;2022-09-24T09:37:06;14.60;99.90
15690;DHT22;7945;48.816;11.506;2022-09-24T09:39:44;14.60;99.90
15690;DHT22;7945;48.816;11.506;2022-09-24T09:42:28;14.70;99.90
15690;DHT22;7945;48.816;11.506;2022-09-24T09:44:59;14.70;99.90
15690;DHT22;7945;48.816;11.506;2022-09-24T09:47:34;14.70;99.90
15690;DHT22;7945;48.816;11.506;2022-09-24T09:50:14;14.60;99.90
15690;DHT22;7945;48.816;11.506;2022-09-24T09:52:45;14.70;99.90
15690;DHT22;7945;48.816;11.506;2022-09-24T09:55:21;14.70;99.90
15690;DHT22;7945;48.816;11.506;2022-09-24T09:57:49;14.70;99.90
15690;DHT22;7945;48.816;11.506;2022-09-24T10:00:24;14.90;99.90
15690;DHT22;7945;48.816;11.506;2022-09-24T10:02:52;14.80;99.90
15690;DHT22;7945;48.816;11.506;2022-09-24T10:05:22;14.90;99.90
15690;DHT22;7945;48.816;11.506;2022-09-24T10:07:53;14.90;99.90
15690;DHT22;7945;48.816;11.506;2022-09-24T10:10:24;14.90;99.90
15690;DHT22;7945;48.816;11.506;2022-09-24T10:12:52;14.80;99.90
15690;DHT22;7945;48.816;11.506;2022-09-24T10:15:21;14.80;99.90
15690;DHT22;7945;48.816;11.506;2022-09-24T10:17:51;14.70;99.90
15690;DHT22;7945;48.816;11.506;2022-09-24T10:20:24;14.70;99.90
15690;DHT22;7945;48.816;11.506;2022-09-24T10:22:54;14.60;99.90
15690;DHT22;7945;48.816;11.506;2022-09-24T10:25:24;14.60;99.90
15690;DHT22;7945;48.816;11.506;2022-09-24T10:27:53;14.60;99.90
15690;DHT22;7945;48.816;11.506;2022-09-24T10:30:52;14.60;99.90
15690;DHT22;7945;48.816;11.506;2022-09-24T10:33:19;14.50;99.90
15690;DHT22;7945;48.816;11.506;2022-09-24T10:35:47;14.60;99.90
15690;DHT22;7945;48.816;11.506;2022-09-24T10:38:15;14.50;99.90
15690;DHT22;7945;48.816;11.506;2022-09-24T10:40:44;14.50;99.90
15690;DHT22;7945;48.816;11.506;2022-09-24T10:43:15;14.50;99.90
15690;DHT22;7945;48.816;11.506;2022-09-24T10:46:02;14.50;99.90
15690;DHT22;7945;48.816;11.506;2022-09-24T10:48:37;14.50;99.90
15690;DHT22;7945;48.816;11.506;2022-09-24T10:51:19;14.50;99.90
15690;DHT22;7945;48.816;11.506;2022-09-24T10:53:56;14.50;99.90
15690;DHT22;7945;48.816;11.506;2022-09-24T10:56:32;14.50;99.90
15690;DHT22;7945;48.816;11.506;2022-09-24T10:59:35;14.50;99.90
15690;DHT22;7945;48.816;11.506;2022-09-24T11:02:31;14.50;99.90
15690;DHT22;7945;48.816;11.506;2022-09-24T11:05:10;14.60;99.90
15690;DHT22;7945;48.816;11.506;2022-09-24T11:07:56;14.60;99.90
15690;DHT22;7945;48.816;11.506;2022-09-24T11:13:39;14.60;99.90
15690;DHT22;7945;48.816;11.506;2022-09-24T11:16:27;14.60;99.90
15690;DHT22;7945;48.816;11.506;2022-09-24T11:19:01;14.60;99.90
15690;DHT22;7945;48.816;11.506;2022-09-24T11:21:37;14.60;99.90
15690;DHT22;7945;48.816;11.506;2022-09-24T11:24:29;14.60;99.90
15690;DHT22;7945;48.816;11.506;2022-09-24T11:27:06;14.70;99.90
15690;DHT22;7945;48.816;11.506;2022-09-24T11:29:52;14.70;99.90
15690;DHT22;7945;48.816;11.506;2022-09-24T11:32:29;14.70;99.90
15690;DHT22;7945;48.816;11.506;2022-09-24T11:35:14;14.70;99.90
15690;DHT22;7945;48.816;11.506;2022-09-24T11:37:54;14.70;99.90
15690;DHT22;7945;48.816;11.506;2022-09-24T11:40:51;14.80;99.90
15690;DHT22;7945;48.816;11.506;2022-09-24T11:43:35;14.80;99.90
15690;DHT22;7945;48.816;11.506;2022-09-24T11:46:17;14.90;99.90
15690;DHT22;7945;48.816;11.506;2022-09-24T11:48:59;14.90;99.90
15690;DHT22;7945;48.816;11.506;2022-09-24T11:51:35;14.90;99.90
15690;DHT22;7945;48.816;11.506;2022-09-24T11:54:07;14.90;99.90
15690;DHT22;7945;48.816;11.506;2022-09-24T11:56:40;15.00;99.90
15690;DHT22;7945;48.816;11.506;2022-09-24T11:59:14;15.00;99.90
15690;DHT22;7945;48.816;11.506;2022-09-24T12:01:47;15.10;99.90
15690;DHT22;7945;48.816;11.506;2022-09-24T12:04:18;15.10;99.90
15690;DHT22;7945;48.816;11.506;2022-09-24T12:06:50;15.10;99.90
15690;DHT22;7945;48.816;11.506;2022-09-24T12:09:24;15.10;99.90
15690;DHT22;7945;48.816;11.506;2022-09-24T12:11:57;15.20;99.90
15690;DHT22;7945;48.816;11.506;2022-09-24T12:14:30;15.20;99.90
15690;DHT22;7945;48.816;11.506;2022-09-24T12:17:05;15.20;99.90
15690;DHT22;7945;48.816;11.506;2022-09-24T12:19:37;15.30;99.90
15690;DHT22;7945;48.816;11.506;2022-09-24T12:22:08;15.30;99.90
15690;DHT22;7945;48.816;11.506;2022-09-24T12:24:38;15.30;99.90
15690;DHT22;7945;48.816;11.506;2022-09-24T12:27:13;15.40;99.90
15690;DHT22;7945;48.816;11.506;2022-09-24T12:29:46;15.40;99.90
15690;DHT22;7945;48.816;11.506;2022-09-24T12:32:39;15.30;99.90
15690;DHT22;7945;48.816;11.506;2022-09-24T12:35:32;15.40;99.90
15690;DHT22;7945;48.816;11.506;2022-09-24T12:38:04;15.40;99.90
15690;DHT22;7945;48.816;11.506;2022-09-24T12:40:48;15.40;99.90
15690;DHT22;7945;48.816;11.506;2022-09-24T12:43:21;15.30;99.90
15690;DHT22;7945;48.816;11.506;2022-09-24T12:45:54;15.30;99.90
15690;DHT22;7945;48.816;11.506;2022-09-24T12:48:23;15.30;99.90
15690;DHT22;7945;48.816;11.506;2022-09-24T12:50:56;15.30;99.90
15690;DHT22;7945;48.816;11.506;2022-09-24T12:53:33;15.40;99.90
15690;DHT22;7945;48.816;11.506;2022-09-24T12:56:02;15.30;99.90
15690;DHT22;7945;48.816;11.506;2022-09-24T12:58:37;15.30;99.90
15690;DHT22;7945;48.816;11.506;2022-09-24T13:01:07;15.30;99.90
15690;DHT22;7945;48.816;11.506;2022-09-24T13:03:38;15.30;99.90
15690;DHT22;7945;48.816;11.506;2022-09-24T13:06:21;15.30;99.90
15690;DHT22;7945;48.816;11.506;2022-09-24T13:08:48;15.30;99.90
15690;DHT22;7945;48.816;11.506;2022-09-24T13:11:26;15.40;99.90
15690;DHT22;7945;48.816;11.506;2022-09-24T13:14:01;15.50;99.90
15690;DHT22;7945;48.816;11.506;2022-09-24T13:16:37;15.50;99.90
15690;DHT22;7945;48.816;11.506;2022-09-24T13:19:17;15.60;99.90
15690;DHT22;7945;48.816;11.506;2022-09-24T13:21:53;15.70;99.90
15690;DHT22;7945;48.816;11.506;2022-09-24T13:24:25;15.70;99.90
15690;DHT22;7945;48.816;11.506;2022-09-24T13:26:53;15.70;99.90
15690;DHT22;7945;48.816;11.506;2022-09-24T13:29:23;15.80;99.90
15690;DHT22;7945;48.816;11.506;2022-09-24T13:31:55;15.80;99.90
15690;DHT22;7945;48.816;11.506;2022-09-24T13:34:26;15.80;99.90
15690;DHT22;7945;48.816;11.506;2022-09-24T13:36:56;15.80;99.90
15690;DHT22;7945;48.816;11.506;2022-09-24T13:39:29;15.80;99.90
15690;DHT22;7945;48.816;11.506;2022-09-24T13:42:05;15.70;99.90
15690;DHT22;7945;48.816;11.506;2022-09-24T13:44:35;15.70;99.90
15690;DHT22;7945;48.816;11.506;2022-09-24T13:47:10;15.70;99.90
15690;DHT22;7945;48.816;11.506;2022-09-24T13:49:41;15.60;99.90
15690;DHT22;7945;48.816;11.506;2022-09-24T13:52:15;15.60;99.90
15690;DHT22;7945;48.816;11.506;2022-09-24T13:54:48;15.50;99.90
15690;DHT22;7945;48.816;11.506;2022-09-24T13:57:21;15.40;99.90
15690;DHT22;7945;48.816;11.506;2022-09-24T14:02:43;15.40;99.90
15690;DHT22;7945;48.816;11.506;2022-09-24T14:05:15;15.30;99.90
15690;DHT22;7945;48.816;11.506;2022-09-24T14:07:52;15.40;99.90
15690;DHT22;7945;48.816;11.506;2022-09-24T14:10:20;15.40;99.90
15690;DHT22;7945;48.816;11.506;2022-09-24T14:13:01;15.40;99.90
15690;DHT22;7945;48.816;11.506;2022-09-24T14:15:33;15.40;99.90
15690;DHT22;7945;48.816;11.506;2022-09-24T14:18:01;15.50;99.90
15690;DHT22;7945;48.816;11.506;2022-09-24T14:20:31;15.40;99.90
15690;DHT22;7945;48.816;11.506;2022-09-24T14:22:59;15.40;99.90
15690;DHT22;7945;48.816;11.506;2022-09-24T14:25:28;15.40;99.90
15690;DHT22;7945;48.816;11.506;2022-09-24T14:27:58;15.40;99.90
15690;DHT22;7945;48.816;11.506;2022-09-24T14:30:29;15.40;99.90
15690;DHT22;7945;48.816;11.506;2022-09-24T14:33:01;15.40;99.90
15690;DHT22;7945;48.816;11.506;2022-09-24T14:35:30;15.40;99.90
15690;DHT22;7945;48.816;11.506;2022-09-24T14:38:00;15.40;99.90
15690;DHT22;7945;48.816;11.506;2022-09-24T14:40:29;15.40;99.90
15690;DHT22;7945;48.816;11.506;2022-09-24T14:43:04;15.30;99.90
15690;DHT22;7945;48.816;11.506;2022-09-24T14:45:33;15.30;99.90
15690;DHT22;7945;48.816;11.506;2022-09-24T14:48:05;15.20;99.90
15690;DHT22;7945;48.816;11.506;2022-09-24T14:50:36;15.30;99.90
15690;DHT22;7945;48.816;11.506;2022-09-24T14:53:12;15.30;99.90
15690;DHT22;7945;48.816;11.506;2022-09-24T14:55:40;15.30;99.90
15690;DHT22;7945;48.816;11.506;2022-09-24T14:58:22;15.30;99.90
15690;DHT22;7945;48.816;11.506;2022-09-24T15:00:51;15.30;99.90
15690;DHT22;7945;48.816;11.506;2022-09-24T15:03:27;15.30;99.90
15690;DHT22;7945;48.816;11.506;2022-09-24T15:06:06;15.30;99.90
15690;DHT22;7945;48.816;11.506;2022-09-24T15:08:40;15.40;99.90
15690;DHT22;7945;48.816;11.506;2022-09-24T15:11:14;15.40;99.90
15690;DHT22;7945;48.816;11.506;2022-09-24T15:13:42;15.40;99.90
15690;DHT22;7945;48.816;11.506;2022-09-24T15:16:18;15.40;99.90
15690;DHT22;7945;48.816;11.506;2022-09-24T15:18:56;15.40;99.90
15690;DHT22;7945;48.816;11.506;2022-09-24T15:21:23;15.40;99.90
15690;DHT22;7945;48.816;11.506;2022-09-24T15:23:52;15.40;99.90
15690;DHT22;7945;48.816;11.506;2022-09-24T15:26:19;15.40;99.90
15690;DHT22;7945;48.816;11.506;2022-09-24T15:28:47;15.40;99.90
15690;DHT22;7945;48.816;11.506;2022-09-24T15:31:13;15.40;99.90
15690;DHT22;7945;48.816;11.506;2022-09-24T15:33:40;15.40;99.90
15690;DHT22;7945;48.816;11.506;2022-09-24T15:36:10;15.40;99.90
15690;DHT22;7945;48.816;11.506;2022-09-24T15:38:39;15.50;99.90
15690;DHT22;7945;48.816;11.506;2022-09-24T15:41:06;15.50;99.90
15690;DHT22;7945;48.816;11.506;2022-09-24T15:43:33;15.50;99.90
15690;DHT22;7945;48.816;11.506;2022-09-24T15:46:00;15.50;99.90
15690;DHT22;7945;48.816;11.506;2022-09-24T15:48:27;15.50;99.90
15690;DHT22;7945;48.816;11.506;2022-09-24T15:50:54;15.50;99.90
15690;DHT22;7945;48.816;11.506;2022-09-24T15:53:24;15.50;99.90
15690;DHT22;7945;48.816;11.506;2022-09-24T15:55:54;15.50;99.90
15690;DHT22;7945;48.816;11.506;2022-09-24T15:58:21;15.50;99.90
15690;DHT22;7945;48.816;11.506;2022-09-24T16:00:48;15.50;99.90
15690;DHT22;7945;48.816;11.506;2022-09-24T16:03:19;15.50;99.90